Time;durP1;ratioP1;P1;durP2;ratioP2;P2;SDS_P1;SDS_P2;PMS_P1;PMS_P2;Temp;Humidity;BMP_temperature;BMP_pressure;BME280_temperature;BME280_humidity;BME280_pressure;Samples;Min_cycle;Max_cycle;Signal;HPM_P1;HPM_P2
2022/07/25 00:01:37;;;;;;;;;13.00;11.67;;;;;27.28;41.08;100583.84;5016921;28;45209;-67
2022/07/25 00:04:03;;;;;;;;;13.00;13.00;;;;;27.31;41.45;100585.25;5016709;28;45642;-67
2022/07/25 00:06:28;;;;;;;;;13.33;12.67;;;;;27.38;41.23;100594.03;5016514;28;45160;-65
2022/07/25 00:08:53;;;;;;;;;13.33;11.67;;;;;27.21;41.54;100568.75;5016749;28;45443;-66
2022/07/25 00:11:19;;;;;;;;;13.33;13.33;;;;;27.29;41.46;100573.75;5017024;28;45245;-65
2022/07/25 00:13:44;;;;;;;;;12.33;11.33;;;;;27.18;41.17;100555.63;5015130;28;46833;-66
2022/07/25 00:16:09;;;;;;;;;14.33;13.33;;;;;27.31;41.62;100570.75;5015082;28;45760;-66
2022/07/25 00:18:35;;;;;;;;;12.00;11.00;;;;;27.29;41.47;100576.47;5016725;28;45509;-67
2022/07/25 00:21:00;;;;;;;;;15.33;14.33;;;;;27.28;41.54;100572.94;5016583;28;45543;-66
2022/07/25 00:23:25;;;;;;;;;13.67;12.33;;;;;27.20;41.86;100559.72;5018317;28;45982;-65
2022/07/25 00:25:51;;;;;;;;;11.67;11.33;;;;;27.25;41.84;100562.53;5020075;28;45509;-66
2022/07/25 00:28:16;;;;;;;;;14.00;13.33;;;;;26.77;42.15;100488.88;5020100;28;45284;-65
2022/07/25 00:30:42;;;;;;;;;12.33;12.33;;;;;27.20;42.54;100558.91;5020563;28;45435;-66
2022/07/25 00:33:07;;;;;;;;;16.67;16.67;;;;;27.19;42.08;100568.19;5034948;28;47592;-67
2022/07/25 00:35:33;;;;;;;;;10.67;10.67;;;;;27.05;42.08;100536.94;5019743;28;45359;-66
2022/07/25 00:38:01;;;;;;;;;13.67;12.33;;;;;27.20;41.63;100558.91;5019922;28;45276;-66
2022/07/25 00:40:26;;;;;;;;;11.33;11.33;;;;;26.60;42.04;100467.16;5019953;28;45232;-66
2022/07/25 00:42:52;;;;;;;;;14.67;14.67;;;;;27.13;42.36;100553.66;5019490;28;45624;-66
2022/07/25 00:45:17;;;;;;;;;14.33;14.33;;;;;27.12;42.66;100545.75;5018329;28;45529;-66
2022/07/25 00:47:42;;;;;;;;;14.33;11.67;;;;;27.06;42.53;100536.69;5019517;28;45229;-66
2022/07/25 00:50:08;;;;;;;;;12.67;10.67;;;;;27.03;42.59;100526.31;5019819;28;45207;-66
2022/07/25 00:52:33;;;;;;;;;13.67;13.67;;;;;26.60;42.38;100461.69;5019326;28;45693;-66
2022/07/25 00:54:59;;;;;;;;;14.33;13.67;;;;;27.12;42.37;100548.47;5019409;28;45344;-67
2022/07/25 00:57:25;;;;;;;;;14.00;14.00;;;;;27.10;42.59;100547.91;5019706;28;45404;-66
2022/07/25 00:59:50;;;;;;;;;13.67;13.67;;;;;26.94;42.54;100512.25;5019758;28;45320;-66
2022/07/25 01:02:16;;;;;;;;;14.33;11.33;;;;;27.09;42.64;100546.25;5034605;28;48412;-66
2022/07/25 01:04:41;;;;;;;;;13.33;13.33;;;;;27.04;42.67;100538.84;5034636;28;45421;-64
2022/07/25 01:07:07;;;;;;;;;16.67;14.67;;;;;26.95;42.83;100521.25;5019585;28;45377;-64
2022/07/25 01:09:32;;;;;;;;;14.00;14.00;;;;;27.09;42.56;100549.81;5019512;28;45315;-66
2022/07/25 01:11:57;;;;;;;;;16.00;16.00;;;;;27.02;42.37;100541.00;5019123;28;46623;-66
2022/07/25 01:14:23;;;;;;;;;13.00;12.00;;;;;27.11;42.67;100555.00;5017764;28;45292;-66
2022/07/25 01:16:48;;;;;;;;;12.67;12.67;;;;;27.10;42.56;100577.94;5019461;28;45300;-65
2022/07/25 01:19:14;;;;;;;;;13.33;13.00;;;;;27.04;43.23;100587.97;5018176;28;45527;-67
2022/07/25 01:21:42;;;;;;;;;13.33;11.33;;;;;27.00;42.88;100569.63;5018759;28;45627;-67
2022/07/25 01:24:08;;;;;;;;;10.33;10.33;;;;;26.98;43.03;100573.41;5019269;28;45514;-65
2022/07/25 01:26:34;;;;;;;;;14.67;12.00;;;;;26.93;42.92;100556.97;5019060;28;45234;-66
2022/07/25 01:28:59;;;;;;;;;15.00;13.67;;;;;27.00;43.34;100554.06;5019295;28;45240;-65
2022/07/25 01:31:25;;;;;;;;;18.00;18.00;;;;;26.98;43.18;100557.03;5018770;28;46623;-65
2022/07/25 01:33:50;;;;;;;;;12.33;11.67;;;;;26.76;43.08;100519.97;5016780;28;45882;-66
2022/07/25 01:36:16;;;;;;;;;13.33;12.33;;;;;27.01;42.78;100571.28;5033812;28;45417;-66
2022/07/25 01:38:41;;;;;;;;;11.67;10.00;;;;;27.01;43.06;100565.81;5019003;28;45647;-65
2022/07/25 01:41:06;;;;;;;;;14.67;12.33;;;;;26.90;42.73;100557.50;5018761;28;46442;-65
2022/07/25 01:43:32;;;;;;;;;12.33;12.33;;;;;25.76;42.62;100363.97;5018804;28;45406;-66
2022/07/25 01:45:57;;;;;;;;;16.67;15.67;;;;;27.00;42.55;100564.16;5018974;28;45360;-66
2022/07/25 01:48:23;;;;;;;;;15.33;12.00;;;;;26.85;42.45;100540.25;5018615;28;45449;-66
2022/07/25 01:50:48;;;;;;;;;14.33;14.33;;;;;26.91;42.19;100550.97;5033946;28;45926;-66
2022/07/25 01:53:14;;;;;;;;;11.33;10.00;;;;;26.98;42.22;100559.75;5018316;28;45386;-65
2022/07/25 01:55:40;;;;;;;;;11.00;11.00;;;;;26.94;42.40;100558.63;5018580;28;45449;-66
2022/07/25 01:58:08;;;;;;;;;13.00;11.67;;;;;26.93;42.65;100553.44;5018818;28;45618;-65
2022/07/25 02:00:34;;;;;;;;;11.67;11.67;;;;;26.92;42.50;100555.34;5033637;28;45770;-66
2022/07/25 02:05:43;;;;;;;;;10.33;10.33;;;;;26.79;42.28;100536.63;5018498;28;45462;-65
2022/07/25 02:08:08;;;;;;;;;18.33;14.67;;;;;26.74;42.30;100530.31;5018478;28;45474;-65
2022/07/25 02:10:33;;;;;;;;;10.67;10.67;;;;;26.81;42.75;100547.28;5033479;28;47377;-66
2022/07/25 02:12:59;;;;;;;;;13.00;12.33;;;;;26.78;42.49;100534.16;5033455;28;45301;-66
2022/07/25 02:15:25;;;;;;;;;15.00;11.67;;;;;26.81;42.63;100550.00;5018464;28;45680;-66
2022/07/25 02:17:50;;;;;;;;;12.67;11.00;;;;;26.80;42.56;100549.19;5018250;28;45586;-65
2022/07/25 02:20:15;;;;;;;;;11.00;11.00;;;;;26.72;42.65;100551.56;5018003;28;45538;-65
2022/07/25 02:22:41;;;;;;;;;8.33;8.33;;;;;26.54;42.67;100525.44;5018187;28;45287;-65
2022/07/25 02:25:06;;;;;;;;;7.67;7.33;;;;;26.64;43.00;100547.41;5018220;28;45443;-65
2022/07/25 02:27:32;;;;;;;;;10.67;10.67;;;;;26.48;43.31;100534.66;5018216;28;45296;-65
2022/07/25 02:29:57;;;;;;;;;9.67;9.67;;;;;26.56;43.78;100558.72;5018125;28;45562;-65
2022/07/25 02:32:22;;;;;;;;;10.00;10.00;;;;;26.56;43.27;100542.38;5016408;28;45389;-65
2022/07/25 02:34:48;;;;;;;;;10.00;9.00;;;;;26.52;43.43;100554.88;5017990;28;45359;-65
2022/07/25 02:37:13;;;;;;;;;10.00;10.00;;;;;26.44;43.73;100552.59;5033085;28;45532;-66
2022/07/25 02:39:39;;;;;;;;;13.33;12.33;;;;;26.35;44.34;100547.56;5017695;28;46361;-66
2022/07/25 02:42:04;;;;;;;;;10.00;8.67;;;;;26.27;43.70;100539.81;5017769;28;45333;-66
2022/07/25 02:44:30;;;;;;;;;11.00;11.00;;;;;26.30;44.11;100549.38;5017657;28;45600;-65
2022/07/25 02:46:55;;;;;;;;;15.00;13.67;;;;;26.22;44.08;100553.34;5017279;28;45489;-66
2022/07/25 02:49:20;;;;;;;;;9.33;9.33;;;;;26.09;44.05;100540.09;5017272;28;45762;-65
2022/07/25 02:51:46;;;;;;;;;12.67;10.33;;;;;26.14;44.11;100544.78;5017843;28;45306;-65
2022/07/25 02:54:11;;;;;;;;;9.67;9.67;;;;;26.08;44.25;100550.19;5016269;28;45455;-66
2022/07/25 02:56:37;;;;;;;;;9.00;8.00;;;;;26.08;44.11;100554.81;5018175;28;45612;-66
2022/07/25 02:59:02;;;;;;;;;8.00;8.00;;;;;25.92;44.03;100531.97;5017610;28;45721;-66
2022/07/25 03:01:28;;;;;;;;;7.00;7.00;;;;;25.82;43.56;100539.97;5017350;28;45474;-65
2022/07/25 03:03:53;;;;;;;;;7.67;7.00;;;;;25.78;43.71;100552.44;5018057;28;45298;-66
2022/07/25 03:06:18;;;;;;;;;9.00;7.00;;;;;25.75;43.33;100553.75;5018028;28;45356;-66
2022/07/25 03:08:44;;;;;;;;;7.00;6.00;;;;;25.38;43.72;100507.13;5016137;28;47256;-65
2022/07/25 03:11:10;;;;;;;;;9.00;6.33;;;;;24.72;43.24;100407.25;5017404;28;45310;-65
2022/07/25 03:13:35;;;;;;;;;7.00;7.00;;;;;25.51;43.62;100557.69;5017579;28;45506;-65
2022/07/25 03:16:01;;;;;;;;;6.00;6.00;;;;;25.41;43.59;100566.50;5017517;28;45408;-65
2022/07/25 03:18:26;;;;;;;;;7.00;6.00;;;;;25.30;43.29;100555.72;5017467;28;47455;-66
2022/07/25 03:20:51;;;;;;;;;3.33;3.00;;;;;25.24;43.20;100556.69;5017269;28;45556;-65
2022/07/25 03:23:17;;;;;;;;;5.33;5.33;;;;;25.23;43.29;100563.19;5017513;28;45394;-66
2022/07/25 03:25:42;;;;;;;;;4.33;4.33;;;;;24.71;43.35;100492.59;5017389;28;45230;-65
2022/07/25 03:28:07;;;;;;;;;6.00;5.00;;;;;25.11;43.06;100569.53;5017313;28;45642;-65
2022/07/25 03:30:33;;;;;;;;;4.00;4.00;;;;;24.48;43.04;100467.16;5017134;28;46631;-65
2022/07/25 03:32:58;;;;;;;;;3.00;3.00;;;;;25.05;42.63;100564.25;5017718;28;45256;-65
2022/07/25 03:35:24;;;;;;;;;2.33;2.33;;;;;24.85;43.17;100559.22;5017379;28;45556;-65
2022/07/25 03:37:50;;;;;;;;;3.67;3.67;;;;;24.52;43.18;100511.78;5017197;28;46026;-65
2022/07/25 03:40:15;;;;;;;;;5.00;5.00;;;;;24.83;42.57;100558.63;5015525;28;46020;-65
2022/07/25 03:42:41;;;;;;;;;6.67;4.67;;;;;24.97;42.77;100589.06;5015665;28;45248;-65
2022/07/25 03:45:07;;;;;;;;;3.33;3.33;;;;;24.56;42.74;100533.88;5017333;28;45346;-65
2022/07/25 03:47:32;;;;;;;;;7.00;4.67;;;;;24.79;42.91;100584.63;5016766;28;46307;-65
2022/07/25 03:49:57;;;;;;;;;5.00;5.00;;;;;24.76;43.12;100609.59;5016852;28;45175;-65
2022/07/25 03:52:23;;;;;;;;;4.67;3.00;;;;;24.71;42.81;100595.91;5017135;28;45408;-65
2022/07/25 03:54:48;;;;;;;;;1.00;1.00;;;;;24.74;42.79;100600.84;5017293;28;45343;-66
2022/07/25 03:57:13;;;;;;;;;3.67;2.67;;;;;24.69;42.45;100615.16;5016994;28;45502;-65
2022/07/25 03:59:39;;;;;;;;;3.00;3.00;;;;;24.18;42.43;100527.06;5020298;28;45216;-65
2022/07/25 04:02:04;;;;;;;;;2.00;2.00;;;;;24.56;42.30;100602.66;5035228;28;45208;-65
2022/07/25 04:04:30;;;;;;;;;5.00;3.67;;;;;24.68;42.17;100624.41;5020522;28;45593;-66
2022/07/25 04:06:55;;;;;;;;;5.67;4.67;;;;;24.62;41.84;100609.00;5019982;28;46492;-64
2022/07/25 04:09:21;;;;;;;;;3.33;2.67;;;;;24.68;41.98;100620.84;5020117;28;45405;-65
2022/07/25 04:11:46;;;;;;;;;3.00;3.00;;;;;24.32;41.65;100571.16;5020411;28;45538;-65
2022/07/25 04:14:11;;;;;;;;;5.33;3.33;;;;;24.41;41.70;100590.63;5019699;28;45600;-65
2022/07/25 04:16:37;;;;;;;;;2.00;2.00;;;;;24.52;41.53;100623.22;5019838;28;47340;-65
2022/07/25 04:19:04;;;;;;;;;2.00;2.00;;;;;24.35;41.73;100614.16;5020049;28;45417;-66
2022/07/25 04:21:29;;;;;;;;;1.00;1.00;;;;;24.33;41.64;100627.16;5020033;28;45267;-65
2022/07/25 04:23:55;;;;;;;;;3.00;3.00;;;;;24.29;42.40;100636.84;5019907;28;45404;-65
2022/07/25 04:26:21;;;;;;;;;3.33;3.33;;;;;24.31;42.40;100636.59;5019919;28;45604;-65
2022/07/25 04:28:46;;;;;;;;;17.33;14.33;;;;;24.21;42.49;100627.09;5018639;28;45393;-65
2022/07/25 04:31:12;;;;;;;;;1.33;1.33;;;;;23.75;42.82;100551.91;5019890;28;45414;-65
2022/07/25 04:33:38;;;;;;;;;5.00;3.00;;;;;24.20;42.73;100633.59;5018532;28;45444;-65
2022/07/25 04:36:04;;;;;;;;;3.00;3.00;;;;;24.15;42.95;100632.66;5019735;28;46623;-66
2022/07/25 04:38:29;;;;;;;;;4.33;3.00;;;;;24.22;43.23;100636.91;5019539;28;45510;-65
2022/07/25 04:40:55;;;;;;;;;2.00;2.00;;;;;24.11;43.50;100631.50;5019624;28;45394;-66
2022/07/25 04:43:20;;;;;;;;;2.67;2.67;;;;;24.15;44.03;100648.97;5019869;28;45413;-66
2022/07/25 04:45:46;;;;;;;;;3.67;3.33;;;;;24.16;44.31;100651.44;5019443;28;46428;-65
2022/07/25 04:48:11;;;;;;;;;3.67;3.67;;;;;23.95;44.08;100624.88;5019059;28;45305;-65
2022/07/25 04:50:37;;;;;;;;;4.00;3.00;;;;;23.93;44.66;100633.25;5019730;28;45315;-66
2022/07/25 04:53:03;;;;;;;;;3.00;1.33;;;;;24.08;44.56;100656.41;5019652;28;45515;-66
2022/07/25 04:55:28;;;;;;;;;3.33;2.33;;;;;24.10;44.88;100665.16;5019350;28;46537;-66
2022/07/25 04:57:54;;;;;;;;;2.00;2.00;;;;;24.10;45.01;100665.97;5019323;28;45245;-65
2022/07/25 05:00:19;;;;;;;;;1.67;1.67;;;;;23.96;45.15;100627.34;5019357;28;45468;-65
2022/07/25 05:02:44;;;;;;;;;2.67;2.67;;;;;24.14;46.13;100655.47;5019434;28;45579;-65
2022/07/25 05:05:10;;;;;;;;;2.33;2.33;;;;;23.77;46.73;100605.97;5019299;28;46358;-65
2022/07/25 05:07:36;;;;;;;;;3.00;3.00;;;;;23.87;46.39;100636.91;5019314;28;45521;-66
2022/07/25 05:10:02;;;;;;;;;3.33;3.33;;;;;24.02;46.78;100660.88;5019325;28;45244;-66
2022/07/25 05:12:28;;;;;;;;;2.33;2.33;;;;;24.01;47.44;100666.53;5019458;28;45490;-66
2022/07/25 05:14:53;;;;;;;;;0.00;0.00;;;;;23.95;47.48;100669.13;5017567;28;48437;-64
2022/07/25 05:17:19;;;;;;;;;2.00;2.00;;;;;23.96;47.38;100664.53;5017829;28;45328;-66
2022/07/25 05:19:45;;;;;;;;;3.00;3.00;;;;;23.91;47.34;100661.69;5019344;28;45505;-65
2022/07/25 05:22:10;;;;;;;;;3.33;1.00;;;;;23.95;47.64;100674.56;5017991;28;45452;-66
2022/07/25 05:24:36;;;;;;;;;2.00;2.00;;;;;23.86;47.73;100656.97;5018994;28;45682;-66
2022/07/25 05:27:03;;;;;;;;;1.00;1.00;;;;;24.01;47.71;100671.97;5034397;28;45572;-65
2022/07/25 05:29:28;;;;;;;;;2.67;2.67;;;;;24.00;47.53;100682.00;5017215;28;45302;-67
2022/07/25 05:31:53;;;;;;;;;2.00;2.00;;;;;24.06;47.43;100674.84;5017820;28;45294;-65
2022/07/25 05:34:19;;;;;;;;;1.00;1.00;;;;;23.70;47.72;100608.78;5033972;28;46615;-66
2022/07/25 05:36:45;;;;;;;;;2.00;2.00;;;;;24.20;47.81;100687.94;5018654;28;45362;-65
2022/07/25 05:39:10;;;;;;;;;2.00;1.67;;;;;24.10;47.53;100671.41;5034085;28;45413;-67
2022/07/25 05:41:36;;;;;;;;;2.00;2.00;;;;;24.23;47.52;100698.38;5018678;28;45654;-66
2022/07/25 05:44:01;;;;;;;;;3.33;3.33;;;;;24.24;47.79;100696.47;5018507;28;45572;-66
2022/07/25 05:46:26;;;;;;;;;2.00;2.00;;;;;24.24;47.19;100691.03;5018482;28;45483;-66
2022/07/25 05:48:52;;;;;;;;;4.00;2.33;;;;;24.40;46.84;100697.66;5033792;28;45207;-66
2022/07/25 05:51:17;;;;;;;;;2.00;2.00;;;;;24.41;46.50;100685.75;5018667;28;45490;-65
2022/07/25 05:53:42;;;;;;;;;4.00;2.00;;;;;24.55;46.55;100701.56;5018273;28;47334;-65
2022/07/25 05:56:09;;;;;;;;;3.75;2.00;;;;;24.49;46.22;100690.84;5016979;28;46449;-65
2022/07/25 05:58:36;;;;;;;;;1.67;1.67;;;;;24.42;46.21;100685.50;5018161;28;45530;-66
2022/07/25 06:01:01;;;;;;;;;4.00;2.00;;;;;24.62;46.57;100706.06;5018420;28;45422;-65
2022/07/25 06:03:26;;;;;;;;;3.67;3.67;;;;;24.68;46.36;100718.72;5018328;28;46920;-65
2022/07/25 06:05:55;;;;;;;;;1.33;1.33;;;;;24.64;46.54;100714.81;5018070;28;45502;-65
2022/07/25 06:08:20;;;;;;;;;2.00;2.00;;;;;24.63;46.22;100707.69;5018194;28;45312;-66
2022/07/25 06:10:45;;;;;;;;;3.00;1.67;;;;;24.67;45.93;100684.44;5018605;28;45234;-66
2022/07/25 06:13:11;;;;;;;;;2.33;2.33;;;;;24.68;46.16;100677.94;5017948;28;45709;-66
2022/07/25 06:15:36;;;;;;;;;2.00;2.00;;;;;24.97;46.09;100717.72;5018015;28;45371;-65
2022/07/25 06:18:01;;;;;;;;;3.00;2.00;;;;;24.85;46.02;100695.19;5018137;28;45600;-66
2022/07/25 06:20:27;;;;;;;;;8.33;6.00;;;;;25.31;45.65;100720.63;5016225;28;45323;-67
2022/07/25 06:22:52;;;;;;;;;3.00;2.33;;;;;26.01;44.34;100733.94;5017836;28;46462;-66
2022/07/25 06:25:18;;;;;;;;;4.67;3.00;;;;;26.76;42.61;100706.25;5033365;28;45345;-66
2022/07/25 06:27:43;;;;;;;;;3.00;3.00;;;;;27.59;40.35;100726.94;5017816;28;45209;-68
2022/07/25 06:30:11;;;;;;;;;3.33;3.33;;;;;28.38;39.10;100725.53;5033310;28;45263;-65
2022/07/25 06:32:37;;;;;;;;;1.67;1.67;;;;;29.07;37.99;100729.00;5033183;28;48972;-67
2022/07/25 06:35:03;;;;;;;;;5.33;3.00;;;;;28.30;36.05;100474.50;5016295;28;45395;-66
2022/07/25 06:37:28;;;;;;;;;5.00;2.33;;;;;30.58;35.18;100732.28;5018004;28;45375;-64
2022/07/25 06:39:54;;;;;;;;;2.67;2.67;;;;;31.26;34.19;100728.28;5017079;28;45609;-66
2022/07/25 06:42:19;;;;;;;;;2.67;2.67;;;;;31.82;33.06;100720.53;5033158;28;47508;-65
2022/07/25 06:44:45;;;;;;;;;2.00;2.00;;;;;32.45;31.91;100733.56;5017481;28;45223;-67
2022/07/25 06:47:13;;;;;;;;;2.33;2.33;;;;;32.55;31.29;100672.88;5016097;28;45706;-65
2022/07/25 06:49:40;;;;;;;;;2.33;2.33;;;;;33.36;30.63;100738.03;5017901;28;45324;-66
2022/07/25 06:52:06;;;;;;;;;2.67;2.67;;;;;33.80;29.76;100728.59;5017619;28;45543;-69
2022/07/25 06:54:31;;;;;;;;;2.67;1.33;;;;;34.19;29.28;100733.78;5017744;28;45324;-68
2022/07/25 06:56:57;;;;;;;;;2.00;2.00;;;;;34.58;29.02;100722.34;5016511;28;45462;-66
2022/07/25 06:59:23;;;;;;;;;4.00;3.00;;;;;34.99;28.17;100740.91;5017729;28;45374;-68
2022/07/25 07:01:48;;;;;;;;;3.00;2.00;;;;;35.22;27.63;100745.38;5032733;28;47827;-67
2022/07/25 07:04:13;;;;;;;;;2.00;2.00;;;;;35.34;27.52;100737.44;5017519;28;45342;-67
2022/07/25 07:06:39;;;;;;;;;2.00;1.00;;;;;35.59;27.72;100747.09;5017510;28;45243;-67
2022/07/25 07:09:05;;;;;;;;;2.00;2.00;;;;;35.97;26.97;100744.84;5017844;28;45529;-66
2022/07/25 07:11:33;;;;;;;;;4.67;4.00;;;;;36.22;26.26;100734.25;5017119;28;46489;-67
2022/07/25 07:13:59;;;;;;;;;2.00;2.00;;;;;36.64;26.33;100754.22;5017050;28;45212;-65
2022/07/25 07:16:25;;;;;;;;;2.67;2.33;;;;;36.92;25.63;100758.47;5015900;28;45615;-67
2022/07/25 07:18:50;;;;;;;;;5.00;4.00;;;;;37.21;25.37;100769.00;5017405;28;45352;-66
2022/07/25 07:21:16;;;;;;;;;3.00;3.00;;;;;37.60;24.88;100776.44;5016596;28;46379;-66
2022/07/25 07:23:41;;;;;;;;;4.00;3.00;;;;;37.88;23.99;100763.13;5016873;28;45431;-66
2022/07/25 07:26:07;;;;;;;;;3.00;3.00;;;;;38.20;23.63;100772.91;5017087;28;45721;-68
2022/07/25 07:28:32;;;;;;;;;3.00;3.00;;;;;38.29;23.04;100757.06;5017206;28;45466;-66
2022/07/25 07:30:57;;;;;;;;;1.00;1.00;;;;;38.55;23.39;100748.63;5016901;28;45501;-67
2022/07/25 07:33:23;;;;;;;;;1.67;1.67;;;;;38.63;22.74;100730.31;5015912;28;45454;-67
2022/07/25 07:35:48;;;;;;;;;2.00;2.00;;;;;39.20;22.10;100758.53;5017037;28;45813;-69
2022/07/25 07:38:14;;;;;;;;;3.67;3.00;;;;;39.62;21.85;100763.34;5017003;28;45303;-66
2022/07/25 07:40:39;;;;;;;;;4.00;4.00;;;;;40.04;21.80;100775.31;5016719;28;46469;-67
2022/07/25 07:43:05;;;;;;;;;6.50;4.00;;;;;40.44;21.27;100778.38;5016777;28;45356;-66
2022/07/25 07:45:30;;;;;;;;;1.00;1.00;;;;;40.86;20.64;100772.69;5016891;28;45246;-66
2022/07/25 07:47:56;;;;;;;;;2.00;1.00;;;;;40.81;20.83;100758.91;5016774;28;45190;-66
2022/07/25 07:50:25;;;;;;;;;2.33;2.33;;;;;41.06;20.25;100771.75;5016458;28;45995;-67
2022/07/25 07:52:52;;;;;;;;;3.00;3.00;;;;;41.51;20.17;100784.75;5015572;28;45314;-66
2022/07/25 07:58:03;;;;;;;;;3.00;3.00;;;;;41.92;19.90;100786.41;5016950;28;45441;-67
2022/07/25 08:00:30;;;;;;;;;1.33;1.33;;;;;42.10;19.21;100786.94;5016329;28;46533;-66
2022/07/25 08:02:57;;;;;;;;;2.00;2.00;;;;;42.00;19.45;100787.41;5016459;28;45415;-66
2022/07/25 08:05:24;;;;;;;;;1.00;1.00;;;;;41.81;19.43;100776.88;5016458;28;45230;-66
2022/07/25 08:07:50;;;;;;;;;2.00;2.00;;;;;41.71;19.65;100792.16;5016617;28;45439;-66
2022/07/25 08:10:44;;;;;;;;;3.67;2.00;;;;;41.57;19.39;100780.53;5031843;28;47344;-66
2022/07/25 08:13:24;;;;;;;;;5.67;1.67;;;;;41.58;19.54;100796.13;5028924;28;45486;-67
2022/07/25 08:15:51;;;;;;;;;1.00;1.00;;;;;41.67;19.46;100801.63;5014816;28;45425;-66
2022/07/25 08:18:17;;;;;;;;;1.00;1.00;;;;;41.69;19.85;100800.09;5016618;28;45316;-67
2022/07/25 08:20:43;;;;;;;;;3.00;3.00;;;;;41.81;20.21;100796.44;5015659;28;45778;-68
2022/07/25 08:23:12;;;;;;;;;1.00;1.00;;;;;41.61;19.68;100789.81;5016108;28;45545;-67
2022/07/25 08:25:38;;;;;;;;;1.67;1.00;;;;;41.75;19.52;100787.50;5016372;28;45339;-66
2022/07/25 08:28:05;;;;;;;;;0.33;0.33;;;;;41.37;19.48;100775.94;5016330;28;45431;-67
2022/07/25 08:30:31;;;;;;;;;3.00;1.00;;;;;40.92;20.30;100793.59;5031331;28;46122;-66
2022/07/25 08:33:02;;;;;;;;;1.00;1.00;;;;;40.17;20.42;100728.81;5015924;28;45214;-67
2022/07/25 08:35:29;;;;;;;;;0.67;0.67;;;;;40.49;20.55;100794.88;5016114;28;45351;-66
2022/07/25 08:37:55;;;;;;;;;2.67;2.67;;;;;40.42;20.66;100802.97;5016323;28;45259;-68
2022/07/25 08:40:23;;;;;;;;;2.00;2.00;;;;;40.73;20.51;100805.25;5016134;28;45843;-67
2022/07/25 08:42:50;;;;;;;;;1.00;1.00;;;;;40.48;21.36;100734.75;5015892;28;45343;-66
2022/07/25 08:45:18;;;;;;;;;0.33;0.33;;;;;41.08;20.50;100780.59;5034200;28;45460;-66
2022/07/25 08:47:45;;;;;;;;;2.00;2.00;;;;;41.56;19.68;100804.03;5034321;28;45605;-66
2022/07/25 08:50:14;;;;;;;;;1.33;1.33;;;;;41.92;19.46;100809.56;5034379;28;48999;-66
2022/07/25 08:52:42;;;;;;;;;2.67;1.00;;;;;42.25;19.12;100805.72;5034595;28;45539;-68
2022/07/25 08:55:11;;;;;;;;;1.00;1.00;;;;;42.46;18.73;100783.97;5019420;28;45341;-68
2022/07/25 08:57:40;;;;;;;;;1.00;1.00;;;;;42.35;18.57;100818.38;5019333;28;45285;-65
2022/07/25 09:00:06;;;;;;;;;0.67;0.67;;;;;41.69;19.23;100816.84;5017364;28;46669;-67
2022/07/25 09:02:32;;;;;;;;;2.33;1.67;;;;;41.14;19.85;100809.06;5034137;28;45443;-66
2022/07/25 09:04:58;;;;;;;;;0.33;0.33;;;;;41.08;20.04;100816.84;5019079;28;45483;-67
2022/07/25 09:07:39;;;;;;;;;1.00;1.00;;;;;40.92;19.96;100788.81;5019462;28;45422;-67
2022/07/25 09:10:14;;;;;;;;;4.67;4.00;;;;;41.22;20.37;100800.53;5018825;28;46505;-67
2022/07/25 09:12:40;;;;;;;;;2.00;1.00;;;;;41.22;20.19;100811.72;5018660;28;45399;-66
2022/07/25 09:15:07;;;;;;;;;1.33;1.33;;;;;40.84;20.61;100819.59;5019309;28;45253;-66
2022/07/25 09:17:34;;;;;;;;;1.33;1.33;;;;;39.82;21.23;100768.91;5017936;28;45210;-67
2022/07/25 09:20:00;;;;;;;;;0.00;0.00;;;;;39.25;21.88;100796.47;5033997;28;48426;-68
2022/07/25 09:22:26;;;;;;;;;1.67;1.67;;;;;37.99;22.69;100716.41;5018792;28;45522;-67
2022/07/25 09:24:52;;;;;;;;;4.00;2.00;;;;;37.99;23.71;100853.22;5019152;28;45298;-67
2022/07/25 09:27:17;;;;;;;;;2.00;1.33;;;;;37.23;24.37;100815.81;5017518;28;45591;-66
2022/07/25 09:29:43;;;;;;;;;2.00;2.00;;;;;36.91;25.14;100823.34;5018669;28;46468;-67
2022/07/25 09:32:19;;;;;;;;;1.00;1.00;;;;;37.12;25.00;100829.16;5017116;28;45631;-67
2022/07/25 09:34:47;;;;;;;;;3.00;2.00;;;;;37.19;24.63;100834.22;5033995;28;45789;-66
2022/07/25 09:37:18;;;;;;;;;2.00;2.00;;;;;37.14;24.85;100836.00;5017516;28;45491;-65
2022/07/25 09:39:49;;;;;;;;;3.00;2.33;;;;;37.33;25.24;100846.06;5033419;28;47401;-66
2022/07/25 09:42:31;;;;;;;;;2.00;2.00;;;;;37.58;24.78;100842.53;5018286;28;45369;-67
2022/07/25 09:45:11;;;;;;;;;3.33;3.33;;;;;36.95;24.71;100848.47;5018499;28;45485;-69
2022/07/25 09:47:52;;;;;;;;;0.67;0.67;;;;;36.25;25.34;100849.94;5018514;28;45542;-67
2022/07/25 09:50:18;;;;;;;;;1.00;1.00;;;;;36.07;25.89;100842.59;5033552;28;48065;-67
2022/07/25 09:52:44;;;;;;;;;5.67;4.00;;;;;35.99;25.52;100863.53;5018236;28;45419;-67
2022/07/25 09:55:12;;;;;;;;;1.00;1.00;;;;;35.83;25.75;100848.34;5015955;28;45618;-67
2022/07/25 09:57:38;;;;;;;;;1.00;1.00;;;;;35.90;25.98;100854.34;5033772;28;45291;-67
2022/07/25 10:00:06;;;;;;;;;3.00;3.00;;;;;35.92;26.04;100846.53;5017971;28;45832;-67
2022/07/25 10:02:53;;;;;;;;;4.33;3.00;;;;;37.52;24.08;100860.47;5017973;28;45358;-67
2022/07/25 10:05:49;;;;;;;;;2.00;2.00;;;;;38.57;23.00;100862.22;5018272;28;45322;-67
2022/07/25 10:08:17;;;;;;;;;0.00;0.00;;;;;38.17;22.80;100776.31;5017049;28;45390;-67
2022/07/25 10:10:42;;;;;;;;;1.00;1.00;;;;;38.37;22.97;100860.94;5033055;28;45816;-69
2022/07/25 10:13:14;;;;;;;;;1.00;1.00;;;;;37.82;23.46;100863.50;5017993;28;45475;-66
2022/07/25 10:15:52;;;;;;;;;1.00;1.00;;;;;37.32;24.07;100861.06;5033480;28;45409;-67
2022/07/25 10:18:22;;;;;;;;;2.33;2.33;;;;;37.07;24.15;100860.63;5016703;28;45515;-68
2022/07/25 10:20:51;;;;;;;;;1.67;1.33;;;;;36.68;24.80;100854.97;5017630;28;45925;-66
2022/07/25 10:23:26;;;;;;;;;3.33;3.33;;;;;36.23;25.50;100857.69;5017958;28;45267;-67
2022/07/25 10:26:10;;;;;;;;;1.00;1.00;;;;;35.77;25.82;100855.97;5018338;28;45222;-67
2022/07/25 10:28:36;;;;;;;;;0.67;0.67;;;;;35.16;26.95;100854.41;5018143;28;45466;-67
2022/07/25 10:31:02;;;;;;;;;1.67;1.67;;;;;34.55;27.52;100860.19;5017855;28;45820;-67
2022/07/25 10:33:27;;;;;;;;;2.00;2.00;;;;;33.98;28.47;100860.19;5018010;28;45259;-68
2022/07/25 10:36:04;;;;;;;;;1.00;1.00;;;;;33.71;28.89;100871.03;5017838;28;45649;-67
2022/07/25 10:38:31;;;;;;;;;1.67;1.67;;;;;33.30;29.45;100871.47;5017883;28;45259;-67
2022/07/25 10:41:01;;;;;;;;;2.00;2.00;;;;;32.54;29.69;100800.59;5032641;28;48069;-67
2022/07/25 10:43:27;;;;;;;;;3.00;3.00;;;;;32.73;30.04;100867.59;5032920;28;45984;-68
2022/07/25 10:45:57;;;;;;;;;2.33;2.33;;;;;32.54;30.26;100856.47;5017759;28;45265;-65
2022/07/25 10:48:30;;;;;;;;;6.00;3.00;;;;;32.58;30.85;100889.75;5017228;28;45281;-67
2022/07/25 10:51:00;;;;;;;;;2.00;2.00;;;;;32.40;30.99;100879.41;5017152;28;45649;-66
2022/07/25 10:53:27;;;;;;;;;1.67;1.33;;;;;32.33;31.26;100869.56;5015738;28;45833;-68
2022/07/25 10:55:57;;;;;;;;;2.00;2.00;;;;;32.23;31.48;100879.78;5017519;28;45237;-67
2022/07/25 10:58:23;;;;;;;;;4.33;4.33;;;;;32.05;31.46;100878.53;5016151;28;45608;-67
2022/07/25 11:00:49;;;;;;;;;2.00;2.00;;;;;31.97;32.16;100890.13;5016783;28;46575;-66
2022/07/25 11:03:15;;;;;;;;;1.33;1.33;;;;;31.66;32.75;100901.22;5032488;28;45469;-66
2022/07/25 11:05:45;;;;;;;;;4.00;4.00;;;;;31.34;32.90;100884.28;5017366;28;45456;-67
2022/07/25 11:08:11;;;;;;;;;3.67;3.33;;;;;31.28;33.40;100885.41;5017170;28;45432;-66
2022/07/25 11:10:36;;;;;;;;;2.67;2.67;;;;;31.38;33.28;100893.59;5016900;28;46197;-69
2022/07/25 11:13:02;;;;;;;;;3.00;3.00;;;;;31.14;33.65;100874.97;5016856;28;45442;-67
2022/07/25 11:15:28;;;;;;;;;4.00;4.00;;;;;31.37;33.48;100889.22;5015861;28;45332;-67
2022/07/25 11:17:54;;;;;;;;;1.00;1.00;;;;;31.63;33.16;100882.53;5016988;28;45407;-67
2022/07/25 11:20:20;;;;;;;;;3.00;3.00;;;;;31.82;33.04;100890.19;5016790;28;45683;-67
2022/07/25 11:22:54;;;;;;;;;5.00;5.00;;;;;31.95;33.11;100904.16;5032295;28;46171;-67
2022/07/25 11:25:24;;;;;;;;;5.00;5.00;;;;;31.86;33.25;100885.78;5032483;28;45391;-67